Elk City, Kansas
Current Conditions -  °F | °C
As of 2:55 PM on Tuesday 21 Oct 2014 (Local Time) from KIDP Reporting Station
Clear Clear  
Wind Chill: 75°   Ceiling: Unl
Heat Index: 75°   Visibility: 10mi
Dew Point: 54°   Wind: 6mph
Humidity: 47%   Direction: 140°SE
Pressure: 30.06"   Gusts: NA
Location:  37.29°N, 95.91°W
Report Text: KIDP 211955Z AUTO 14005KT 10SM CLR 24/12 A3006 RMK AO2
Loading
Personal Weather Stations






























Interactive Weather Map New forecast layout! Learn more

10-Day Weather Forecast

Advertisements
Track Severe Weather on mobile